sensor_id;sensor_type;location;lat;lon;timestamp;P1;P2;P0
78063;PMS5003;67429;51.596;-3.264;2023-04-15T00:01:52;2;2;
78063;PMS5003;67429;51.596;-3.264;2023-04-15T00:04:18;1;1;
78063;PMS5003;67429;51.596;-3.264;2023-04-15T00:06:48;1;1;
78063;PMS5003;67429;51.596;-3.264;2023-04-15T00:09:09;2;2;
78063;PMS5003;67429;51.596;-3.264;2023-04-15T00:11:35;3;3;
78063;PMS5003;67429;51.596;-3.264;2023-04-15T00:14:01;2;2;
78063;PMS5003;67429;51.596;-3.264;2023-04-15T00:16:27;4;2;
78063;PMS5003;67429;51.596;-3.264;2023-04-15T00:18:52;2;2;
78063;PMS5003;67429;51.596;-3.264;2023-04-15T00:21:19;3;3;
78063;PMS5003;67429;51.596;-3.264;2023-04-15T00:23:45;3;2;
78063;PMS5003;67429;51.596;-3.264;2023-04-15T00:26:10;3;3;
78063;PMS5003;67429;51.596;-3.264;2023-04-15T00:28:36;3;3;
78063;PMS5003;67429;51.596;-3.264;2023-04-15T00:31:02;2;2;
78063;PMS5003;67429;51.596;-3.264;2023-04-15T00:33:27;3;3;
78063;PMS5003;67429;51.596;-3.264;2023-04-15T00:35:53;4;4;
78063;PMS5003;67429;51.596;-3.264;2023-04-15T00:38:19;5;5;
78063;PMS5003;67429;51.596;-3.264;2023-04-15T00:40:45;3;3;
78063;PMS5003;67429;51.596;-3.264;2023-04-15T00:43:10;5;5;
78063;PMS5003;67429;51.596;-3.264;2023-04-15T00:45:36;7;5;
78063;PMS5003;67429;51.596;-3.264;2023-04-15T00:48:02;3;3;
78063;PMS5003;67429;51.596;-3.264;2023-04-15T00:50:28;5;3;
78063;PMS5003;67429;51.596;-3.264;2023-04-15T00:52:54;5;5;
78063;PMS5003;67429;51.596;-3.264;2023-04-15T00:55:20;5;5;
78063;PMS5003;67429;51.596;-3.264;2023-04-15T00:57:46;5;5;
78063;PMS5003;67429;51.596;-3.264;2023-04-15T01:00:11;5;5;
78063;PMS5003;67429;51.596;-3.264;2023-04-15T01:02:37;2;2;
78063;PMS5003;67429;51.596;-3.264;2023-04-15T01:05:03;2;2;
78063;PMS5003;67429;51.596;-3.264;2023-04-15T01:07:28;2;2;
78063;PMS5003;67429;51.596;-3.264;2023-04-15T01:09:54;5;5;
78063;PMS5003;67429;51.596;-3.264;2023-04-15T01:12:20;3;3;
78063;PMS5003;67429;51.596;-3.264;2023-04-15T01:14:46;3;3;
78063;PMS5003;67429;51.596;-3.264;2023-04-15T01:17:11;3;3;
78063;PMS5003;67429;51.596;-3.264;2023-04-15T01:19:37;2;2;
78063;PMS5003;67429;51.596;-3.264;2023-04-15T01:22:03;3;3;
78063;PMS5003;67429;51.596;-3.264;2023-04-15T01:24:29;7;6;
78063;PMS5003;67429;51.596;-3.264;2023-04-15T01:26:55;3;3;
78063;PMS5003;67429;51.596;-3.264;2023-04-15T01:29:20;3;3;
78063;PMS5003;67429;51.596;-3.264;2023-04-15T01:31:50;4;3;
78063;PMS5003;67429;51.596;-3.264;2023-04-15T01:34:12;4;4;
78063;PMS5003;67429;51.596;-3.264;2023-04-15T01:36:38;3;3;
78063;PMS5003;67429;51.596;-3.264;2023-04-15T01:39:03;3;3;
78063;PMS5003;67429;51.596;-3.264;2023-04-15T01:41:29;3;3;
78063;PMS5003;67429;51.596;-3.264;2023-04-15T01:43:55;2;2;
78063;PMS5003;67429;51.596;-3.264;2023-04-15T01:46:21;3;2;
78063;PMS5003;67429;51.596;-3.264;2023-04-15T01:48:47;4;4;
78063;PMS5003;67429;51.596;-3.264;2023-04-15T01:51:13;3;3;
78063;PMS5003;67429;51.596;-3.264;2023-04-15T01:53:38;6;4;
78063;PMS5003;67429;51.596;-3.264;2023-04-15T01:56:04;4;3;
78063;PMS5003;67429;51.596;-3.264;2023-04-15T01:58:30;4;3;
78063;PMS5003;67429;51.596;-3.264;2023-04-15T02:00:56;3;3;
78063;PMS5003;67429;51.596;-3.264;2023-04-15T02:03:21;3;3;
78063;PMS5003;67429;51.596;-3.264;2023-04-15T02:05:47;6;6;
78063;PMS5003;67429;51.596;-3.264;2023-04-15T02:08:13;2;2;
78063;PMS5003;67429;51.596;-3.264;2023-04-15T02:10:39;3;3;
78063;PMS5003;67429;51.596;-3.264;2023-04-15T02:13:05;3;3;
78063;PMS5003;67429;51.596;-3.264;2023-04-15T02:15:30;3;3;
78063;PMS5003;67429;51.596;-3.264;2023-04-15T02:17:56;3;3;
78063;PMS5003;67429;51.596;-3.264;2023-04-15T02:20:22;6;3;
78063;PMS5003;67429;51.596;-3.264;2023-04-15T02:22:48;2;2;
78063;PMS5003;67429;51.596;-3.264;2023-04-15T02:25:14;3;2;
78063;PMS5003;67429;51.596;-3.264;2023-04-15T02:27:39;5;5;
78063;PMS5003;67429;51.596;-3.264;2023-04-15T02:30:06;4;4;
78063;PMS5003;67429;51.596;-3.264;2023-04-15T02:32:32;2;2;
78063;PMS5003;67429;51.596;-3.264;2023-04-15T02:35:01;3;3;
78063;PMS5003;67429;51.596;-3.264;2023-04-15T02:37:23;5;3;
78063;PMS5003;67429;51.596;-3.264;2023-04-15T02:39:48;6;5;
78063;PMS5003;67429;51.596;-3.264;2023-04-15T02:42:14;5;5;
78063;PMS5003;67429;51.596;-3.264;2023-04-15T02:44:40;8;8;
78063;PMS5003;67429;51.596;-3.264;2023-04-15T02:47:06;5;5;
78063;PMS5003;67429;51.596;-3.264;2023-04-15T02:49:32;5;5;
78063;PMS5003;67429;51.596;-3.264;2023-04-15T02:51:57;5;5;
78063;PMS5003;67429;51.596;-3.264;2023-04-15T02:54:23;5;5;
78063;PMS5003;67429;51.596;-3.264;2023-04-15T02:56:49;6;5;
78063;PMS5003;67429;51.596;-3.264;2023-04-15T02:59:15;5;5;
78063;PMS5003;67429;51.596;-3.264;2023-04-15T03:01:41;7;6;
78063;PMS5003;67429;51.596;-3.264;2023-04-15T03:04:06;3;3;
78063;PMS5003;67429;51.596;-3.264;2023-04-15T03:06:32;3;3;
78063;PMS5003;67429;51.596;-3.264;2023-04-15T03:08:58;5;5;
78063;PMS5003;67429;51.596;-3.264;2023-04-15T03:11:24;7;6;
78063;PMS5003;67429;51.596;-3.264;2023-04-15T03:13:50;5;5;
78063;PMS5003;67429;51.596;-3.264;2023-04-15T03:16:16;4;3;
78063;PMS5003;67429;51.596;-3.264;2023-04-15T03:18:41;8;8;
78063;PMS5003;67429;51.596;-3.264;2023-04-15T03:21:06;5;5;
78063;PMS5003;67429;51.596;-3.264;2023-04-15T03:23:32;5;5;
78063;PMS5003;67429;51.596;-3.264;2023-04-15T03:26:00;7;5;
78063;PMS5003;67429;51.596;-3.264;2023-04-15T03:28:23;5;5;
78063;PMS5003;67429;51.596;-3.264;2023-04-15T03:30:49;2;2;
78063;PMS5003;67429;51.596;-3.264;2023-04-15T03:33:15;5;5;
78063;PMS5003;67429;51.596;-3.264;2023-04-15T03:35:41;3;3;
78063;PMS5003;67429;51.596;-3.264;2023-04-15T03:38:06;5;3;
78063;PMS5003;67429;51.596;-3.264;2023-04-15T03:40:32;7;4;
78063;PMS5003;67429;51.596;-3.264;2023-04-15T03:42:58;3;3;
78063;PMS5003;67429;51.596;-3.264;2023-04-15T03:45:24;5;5;
78063;PMS5003;67429;51.596;-3.264;2023-04-15T03:47:52;5;5;
78063;PMS5003;67429;51.596;-3.264;2023-04-15T03:50:16;6;3;
78063;PMS5003;67429;51.596;-3.264;2023-04-15T03:52:43;3;3;
78063;PMS5003;67429;51.596;-3.264;2023-04-15T03:55:07;3;2;
78063;PMS5003;67429;51.596;-3.264;2023-04-15T03:57:33;2;2;
78063;PMS5003;67429;51.596;-3.264;2023-04-15T03:59:59;6;6;
78063;PMS5003;67429;51.596;-3.264;2023-04-15T04:02:25;4;4;
78063;PMS5003;67429;51.596;-3.264;2023-04-15T04:04:50;3;3;
78063;PMS5003;67429;51.596;-3.264;2023-04-15T04:07:17;5;5;
78063;PMS5003;67429;51.596;-3.264;2023-04-15T04:09:42;3;3;
78063;PMS5003;67429;51.596;-3.264;2023-04-15T04:12:08;4;4;
78063;PMS5003;67429;51.596;-3.264;2023-04-15T04:14:34;3;3;
78063;PMS5003;67429;51.596;-3.264;2023-04-15T04:16:59;6;6;
78063;PMS5003;67429;51.596;-3.264;2023-04-15T04:19:25;5;5;
78063;PMS5003;67429;51.596;-3.264;2023-04-15T04:21:51;6;6;
78063;PMS5003;67429;51.596;-3.264;2023-04-15T04:24:17;5;5;
78063;PMS5003;67429;51.596;-3.264;2023-04-15T04:26:43;6;5;
78063;PMS5003;67429;51.596;-3.264;2023-04-15T04:29:08;6;4;
78063;PMS5003;67429;51.596;-3.264;2023-04-15T04:31:34;6;6;
78063;PMS5003;67429;51.596;-3.264;2023-04-15T04:34:00;3;3;
78063;PMS5003;67429;51.596;-3.264;2023-04-15T04:36:26;5;5;
78063;PMS5003;67429;51.596;-3.264;2023-04-15T04:38:52;5;5;
78063;PMS5003;67429;51.596;-3.264;2023-04-15T04:41:18;6;6;
78063;PMS5003;67429;51.596;-3.264;2023-04-15T04:43:43;6;6;
78063;PMS5003;67429;51.596;-3.264;2023-04-15T04:46:09;6;6;
78063;PMS5003;67429;51.596;-3.264;2023-04-15T04:48:35;5;5;
78063;PMS5003;67429;51.596;-3.264;2023-04-15T04:51:01;6;6;
78063;PMS5003;67429;51.596;-3.264;2023-04-15T04:53:26;6;5;
78063;PMS5003;67429;51.596;-3.264;2023-04-15T04:55:52;7;6;
78063;PMS5003;67429;51.596;-3.264;2023-04-15T04:58:18;5;5;
78063;PMS5003;67429;51.596;-3.264;2023-04-15T05:00:44;7;6;
78063;PMS5003;67429;51.596;-3.264;2023-04-15T05:03:10;5;3;
78063;PMS5003;67429;51.596;-3.264;2023-04-15T05:05:36;6;6;
78063;PMS5003;67429;51.596;-3.264;2023-04-15T05:08:01;7;7;
78063;PMS5003;67429;51.596;-3.264;2023-04-15T05:10:27;5;5;
78063;PMS5003;67429;51.596;-3.264;2023-04-15T05:12:52;6;6;
78063;PMS5003;67429;51.596;-3.264;2023-04-15T05:15:19;7;6;
78063;PMS5003;67429;51.596;-3.264;2023-04-15T05:17:44;6;6;
78063;PMS5003;67429;51.596;-3.264;2023-04-15T05:20:10;6;6;
78063;PMS5003;67429;51.596;-3.264;2023-04-15T05:22:35;7;7;
78063;PMS5003;67429;51.596;-3.264;2023-04-15T05:25:01;5;5;
78063;PMS5003;67429;51.596;-3.264;2023-04-15T05:27:27;8;8;
78063;PMS5003;67429;51.596;-3.264;2023-04-15T05:29:53;6;6;
78063;PMS5003;67429;51.596;-3.264;2023-04-15T05:32:19;7;6;
78063;PMS5003;67429;51.596;-3.264;2023-04-15T05:34:45;6;6;
78063;PMS5003;67429;51.596;-3.264;2023-04-15T05:37:10;6;6;
78063;PMS5003;67429;51.596;-3.264;2023-04-15T05:39:36;5;5;
78063;PMS5003;67429;51.596;-3.264;2023-04-15T05:42:02;5;5;
78063;PMS5003;67429;51.596;-3.264;2023-04-15T05:44:28;5;5;
78063;PMS5003;67429;51.596;-3.264;2023-04-15T05:46:53;6;6;
78063;PMS5003;67429;51.596;-3.264;2023-04-15T05:49:20;6;6;
78063;PMS5003;67429;51.596;-3.264;2023-04-15T05:51:46;8;6;
78063;PMS5003;67429;51.596;-3.264;2023-04-15T05:54:11;6;6;
78063;PMS5003;67429;51.596;-3.264;2023-04-15T05:56:37;10;10;
78063;PMS5003;67429;51.596;-3.264;2023-04-15T05:59:03;6;6;
78063;PMS5003;67429;51.596;-3.264;2023-04-15T06:01:28;4;3;
78063;PMS5003;67429;51.596;-3.264;2023-04-15T06:03:54;5;5;
78063;PMS5003;67429;51.596;-3.264;2023-04-15T06:06:20;5;5;
78063;PMS5003;67429;51.596;-3.264;2023-04-15T06:08:46;8;7;
78063;PMS5003;67429;51.596;-3.264;2023-04-15T06:11:12;9;9;
78063;PMS5003;67429;51.596;-3.264;2023-04-15T06:13:37;6;6;
78063;PMS5003;67429;51.596;-3.264;2023-04-15T06:16:03;4;4;
78063;PMS5003;67429;51.596;-3.264;2023-04-15T06:18:29;7;7;
78063;PMS5003;67429;51.596;-3.264;2023-04-15T06:20:55;7;6;
78063;PMS5003;67429;51.596;-3.264;2023-04-15T06:23:21;7;6;
78063;PMS5003;67429;51.596;-3.264;2023-04-15T06:25:47;7;6;
78063;PMS5003;67429;51.596;-3.264;2023-04-15T06:28:12;6;4;
78063;PMS5003;67429;51.596;-3.264;2023-04-15T06:30:38;4;4;
78063;PMS5003;67429;51.596;-3.264;2023-04-15T06:33:04;6;6;
78063;PMS5003;67429;51.596;-3.264;2023-04-15T06:35:29;6;4;
78063;PMS5003;67429;51.596;-3.264;2023-04-15T06:37:55;4;4;
78063;PMS5003;67429;51.596;-3.264;2023-04-15T06:40:21;6;4;
78063;PMS5003;67429;51.596;-3.264;2023-04-15T06:42:47;4;4;
78063;PMS5003;67429;51.596;-3.264;2023-04-15T06:45:12;5;5;
78063;PMS5003;67429;51.596;-3.264;2023-04-15T06:47:38;4;4;
78063;PMS5003;67429;51.596;-3.264;2023-04-15T06:50:04;7;7;
78063;PMS5003;67429;51.596;-3.264;2023-04-15T06:52:30;4;4;
78063;PMS5003;67429;51.596;-3.264;2023-04-15T06:54:55;5;5;
78063;PMS5003;67429;51.596;-3.264;2023-04-15T06:57:21;4;4;
78063;PMS5003;67429;51.596;-3.264;2023-04-15T06:59:47;4;4;
78063;PMS5003;67429;51.596;-3.264;2023-04-15T07:02:12;4;3;
78063;PMS5003;67429;51.596;-3.264;2023-04-15T07:04:39;5;5;
78063;PMS5003;67429;51.596;-3.264;2023-04-15T07:07:04;5;5;
78063;PMS5003;67429;51.596;-3.264;2023-04-15T07:09:30;4;4;
78063;PMS5003;67429;51.596;-3.264;2023-04-15T07:11:55;5;5;
78063;PMS5003;67429;51.596;-3.264;2023-04-15T07:14:21;7;7;
78063;PMS5003;67429;51.596;-3.264;2023-04-15T07:16:47;5;5;
78063;PMS5003;67429;51.596;-3.264;2023-04-15T07:19:13;5;4;
78063;PMS5003;67429;51.596;-3.264;2023-04-15T07:21:38;6;5;
78063;PMS5003;67429;51.596;-3.264;2023-04-15T07:24:04;5;5;
78063;PMS5003;67429;51.596;-3.264;2023-04-15T07:26:30;6;5;
78063;PMS5003;67429;51.596;-3.264;2023-04-15T07:28:55;5;5;
78063;PMS5003;67429;51.596;-3.264;2023-04-15T07:31:21;4;4;
78063;PMS5003;67429;51.596;-3.264;2023-04-15T07:33:47;4;4;
78063;PMS5003;67429;51.596;-3.264;2023-04-15T07:36:12;5;5;
78063;PMS5003;67429;51.596;-3.264;2023-04-15T07:38:38;5;5;
78063;PMS5003;67429;51.596;-3.264;2023-04-15T07:41:04;3;3;
78063;PMS5003;67429;51.596;-3.264;2023-04-15T07:43:30;4;4;
78063;PMS5003;67429;51.596;-3.264;2023-04-15T07:45:55;2;2;
78063;PMS5003;67429;51.596;-3.264;2023-04-15T07:48:21;4;4;
78063;PMS5003;67429;51.596;-3.264;2023-04-15T07:50:47;3;3;
78063;PMS5003;67429;51.596;-3.264;2023-04-15T07:53:12;3;3;
78063;PMS5003;67429;51.596;-3.264;2023-04-15T07:55:38;3;3;
78063;PMS5003;67429;51.596;-3.264;2023-04-15T07:58:04;3;3;
78063;PMS5003;67429;51.596;-3.264;2023-04-15T08:00:29;4;4;
78063;PMS5003;67429;51.596;-3.264;2023-04-15T08:02:55;3;3;
78063;PMS5003;67429;51.596;-3.264;2023-04-15T08:05:21;3;3;
78063;PMS5003;67429;51.596;-3.264;2023-04-15T08:07:47;3;3;
78063;PMS5003;67429;51.596;-3.264;2023-04-15T08:10:13;3;3;
78063;PMS5003;67429;51.596;-3.264;2023-04-15T08:12:38;3;3;
78063;PMS5003;67429;51.596;-3.264;2023-04-15T08:15:04;3;3;
78063;PMS5003;67429;51.596;-3.264;2023-04-15T08:17:29;2;2;
78063;PMS5003;67429;51.596;-3.264;2023-04-15T08:19:55;2;2;
78063;PMS5003;67429;51.596;-3.264;2023-04-15T08:22:20;2;2;
78063;PMS5003;67429;51.596;-3.264;2023-04-15T08:24:46;2;2;
78063;PMS5003;67429;51.596;-3.264;2023-04-15T08:27:12;3;3;
78063;PMS5003;67429;51.596;-3.264;2023-04-15T08:29:37;3;3;
78063;PMS5003;67429;51.596;-3.264;2023-04-15T08:32:03;3;2;
78063;PMS5003;67429;51.596;-3.264;2023-04-15T08:34:29;3;3;
78063;PMS5003;67429;51.596;-3.264;2023-04-15T08:36:55;2;1;
78063;PMS5003;67429;51.596;-3.264;2023-04-15T08:39:20;2;1;
78063;PMS5003;67429;51.596;-3.264;2023-04-15T08:41:46;2;2;
78063;PMS5003;67429;51.596;-3.264;2023-04-15T08:44:11;2;2;
78063;PMS5003;67429;51.596;-3.264;2023-04-15T08:46:37;2;2;
78063;PMS5003;67429;51.596;-3.264;2023-04-15T08:49:03;1;1;
78063;PMS5003;67429;51.596;-3.264;2023-04-15T08:51:28;2;2;
78063;PMS5003;67429;51.596;-3.264;2023-04-15T08:53:53;3;3;
78063;PMS5003;67429;51.596;-3.264;2023-04-15T08:56:21;2;2;
78063;PMS5003;67429;51.596;-3.264;2023-04-15T08:58:45;3;3;
78063;PMS5003;67429;51.596;-3.264;2023-04-15T09:01:10;4;3;
78063;PMS5003;67429;51.596;-3.264;2023-04-15T09:03:36;2;2;
78063;PMS5003;67429;51.596;-3.264;2023-04-15T09:06:03;1;1;
78063;PMS5003;67429;51.596;-3.264;2023-04-15T09:08:27;2;2;
78063;PMS5003;67429;51.596;-3.264;2023-04-15T09:10:53;2;2;
78063;PMS5003;67429;51.596;-3.264;2023-04-15T09:13:19;3;2;
78063;PMS5003;67429;51.596;-3.264;2023-04-15T09:15:44;2;2;
78063;PMS5003;67429;51.596;-3.264;2023-04-15T09:18:10;1;1;
78063;PMS5003;67429;51.596;-3.264;2023-04-15T09:20:37;1;1;
78063;PMS5003;67429;51.596;-3.264;2023-04-15T09:23:01;2;1;
78063;PMS5003;67429;51.596;-3.264;2023-04-15T09:25:28;2;2;
78063;PMS5003;67429;51.596;-3.264;2023-04-15T09:27:52;2;2;
78063;PMS5003;67429;51.596;-3.264;2023-04-15T09:30:18;2;2;
78063;PMS5003;67429;51.596;-3.264;2023-04-15T09:32:47;3;2;
78063;PMS5003;67429;51.596;-3.264;2023-04-15T09:35:10;2;1;
78063;PMS5003;67429;51.596;-3.264;2023-04-15T09:37:34;2;1;
78063;PMS5003;67429;51.596;-3.264;2023-04-15T09:40:00;2;2;
78063;PMS5003;67429;51.596;-3.264;2023-04-15T09:42:27;1;1;
78063;PMS5003;67429;51.596;-3.264;2023-04-15T09:44:51;2;2;
78063;PMS5003;67429;51.596;-3.264;2023-04-15T09:49:46;1;1;
78063;PMS5003;67429;51.596;-3.264;2023-04-15T09:52:07;1;1;
78063;PMS5003;67429;51.596;-3.264;2023-04-15T09:54:34;1;1;
78063;PMS5003;67429;51.596;-3.264;2023-04-15T09:57:03;1;1;
78063;PMS5003;67429;51.596;-3.264;2023-04-15T09:59:24;1;1;
78063;PMS5003;67429;51.596;-3.264;2023-04-15T10:01:50;3;3;
78063;PMS5003;67429;51.596;-3.264;2023-04-15T10:04:15;1;1;
78063;PMS5003;67429;51.596;-3.264;2023-04-15T10:06:41;0;0;
78063;PMS5003;67429;51.596;-3.264;2023-04-15T10:09:09;1;0;
78063;PMS5003;67429;51.596;-3.264;2023-04-15T10:11:32;2;2;
78063;PMS5003;67429;51.596;-3.264;2023-04-15T10:13:58;1;1;
78063;PMS5003;67429;51.596;-3.264;2023-04-15T10:16:25;1;1;
78063;PMS5003;67429;51.596;-3.264;2023-04-15T10:18:50;1;1;
78063;PMS5003;67429;51.596;-3.264;2023-04-15T10:21:20;0;0;
78063;PMS5003;67429;51.596;-3.264;2023-04-15T10:23:40;0;0;
78063;PMS5003;67429;51.596;-3.264;2023-04-15T10:26:05;1;1;
78063;PMS5003;67429;51.596;-3.264;2023-04-15T10:28:31;0;0;
78063;PMS5003;67429;51.596;-3.264;2023-04-15T10:30:56;1;1;
78063;PMS5003;67429;51.596;-3.264;2023-04-15T10:33:22;0;0;
78063;PMS5003;67429;51.596;-3.264;2023-04-15T10:35:48;2;0;
78063;PMS5003;67429;51.596;-3.264;2023-04-15T10:40:39;2;2;
78063;PMS5003;67429;51.596;-3.264;2023-04-15T10:43:04;2;2;
78063;PMS5003;67429;51.596;-3.264;2023-04-15T10:45:31;0;0;
78063;PMS5003;67429;51.596;-3.264;2023-04-15T10:47:55;0;0;
78063;PMS5003;67429;51.596;-3.264;2023-04-15T10:50:21;3;3;
78063;PMS5003;67429;51.596;-3.264;2023-04-15T10:52:48;1;1;
78063;PMS5003;67429;51.596;-3.264;2023-04-15T10:55:12;1;1;
78063;PMS5003;67429;51.596;-3.264;2023-04-15T10:57:37;0;0;
78063;PMS5003;67429;51.596;-3.264;2023-04-15T11:00:09;1;1;
78063;PMS5003;67429;51.596;-3.264;2023-04-15T11:04:54;0;0;
78063;PMS5003;67429;51.596;-3.264;2023-04-15T11:09:45;2;1;
78063;PMS5003;67429;51.596;-3.264;2023-04-15T11:12:10;1;1;
78063;PMS5003;67429;51.596;-3.264;2023-04-15T11:14:38;0;0;
78063;PMS5003;67429;51.596;-3.264;2023-04-15T11:17:01;0;0;
78063;PMS5003;67429;51.596;-3.264;2023-04-15T11:21:52;0;0;
78063;PMS5003;67429;51.596;-3.264;2023-04-15T11:24:22;0;0;
78063;PMS5003;67429;51.596;-3.264;2023-04-15T11:26:43;0;0;
78063;PMS5003;67429;51.596;-3.264;2023-04-15T11:29:08;1;1;
78063;PMS5003;67429;51.596;-3.264;2023-04-15T11:31:34;2;2;
78063;PMS5003;67429;51.596;-3.264;2023-04-15T11:33:59;1;1;
78063;PMS5003;67429;51.596;-3.264;2023-04-15T11:36:25;2;1;
78063;PMS5003;67429;51.596;-3.264;2023-04-15T11:38:50;1;1;
78063;PMS5003;67429;51.596;-3.264;2023-04-15T11:41:19;0;0;
78063;PMS5003;67429;51.596;-3.264;2023-04-15T11:43:41;0;0;
78063;PMS5003;67429;51.596;-3.264;2023-04-15T11:46:07;1;1;
78063;PMS5003;67429;51.596;-3.264;2023-04-15T11:48:32;0;0;
78063;PMS5003;67429;51.596;-3.264;2023-04-15T11:50:58;1;1;
78063;PMS5003;67429;51.596;-3.264;2023-04-15T11:53:23;0;0;
78063;PMS5003;67429;51.596;-3.264;2023-04-15T11:55:49;0;0;
78063;PMS5003;67429;51.596;-3.264;2023-04-15T11:58:14;1;1;
78063;PMS5003;67429;51.596;-3.264;2023-04-15T12:00:39;1;1;
78063;PMS5003;67429;51.596;-3.264;2023-04-15T12:03:11;1;1;
78063;PMS5003;67429;51.596;-3.264;2023-04-15T12:05:30;1;1;
78063;PMS5003;67429;51.596;-3.264;2023-04-15T12:07:57;0;0;
78063;PMS5003;67429;51.596;-3.264;2023-04-15T12:10:23;1;1;
78063;PMS5003;67429;51.596;-3.264;2023-04-15T12:12:48;1;1;
78063;PMS5003;67429;51.596;-3.264;2023-04-15T12:15:12;1;1;
78063;PMS5003;67429;51.596;-3.264;2023-04-15T12:17:39;0;0;
78063;PMS5003;67429;51.596;-3.264;2023-04-15T12:20:03;0;0;
78063;PMS5003;67429;51.596;-3.264;2023-04-15T12:22:28;0;0;
78063;PMS5003;67429;51.596;-3.264;2023-04-15T12:24:54;1;1;
78063;PMS5003;67429;51.596;-3.264;2023-04-15T12:27:20;0;0;
78063;PMS5003;67429;51.596;-3.264;2023-04-15T12:29:45;1;1;
78063;PMS5003;67429;51.596;-3.264;2023-04-15T12:32:11;1;1;
78063;PMS5003;67429;51.596;-3.264;2023-04-15T12:34:36;1;1;
78063;PMS5003;67429;51.596;-3.264;2023-04-15T12:37:02;1;1;
78063;PMS5003;67429;51.596;-3.264;2023-04-15T12:39:27;1;1;
78063;PMS5003;67429;51.596;-3.264;2023-04-15T12:41:52;0;0;
78063;PMS5003;67429;51.596;-3.264;2023-04-15T12:44:18;1;1;
78063;PMS5003;67429;51.596;-3.264;2023-04-15T12:46:44;0;0;
78063;PMS5003;67429;51.596;-3.264;2023-04-15T12:49:08;0;0;
78063;PMS5003;67429;51.596;-3.264;2023-04-15T12:51:34;0;0;
78063;PMS5003;67429;51.596;-3.264;2023-04-15T12:53:59;0;0;
78063;PMS5003;67429;51.596;-3.264;2023-04-15T12:56:24;0;0;
78063;PMS5003;67429;51.596;-3.264;2023-04-15T12:58:50;0;0;
78063;PMS5003;67429;51.596;-3.264;2023-04-15T13:01:15;0;0;
78063;PMS5003;67429;51.596;-3.264;2023-04-15T13:03:41;0;0;
78063;PMS5003;67429;51.596;-3.264;2023-04-15T13:06:06;0;0;
78063;PMS5003;67429;51.596;-3.264;2023-04-15T13:08:32;1;1;
78063;PMS5003;67429;51.596;-3.264;2023-04-15T13:10:57;3;3;
78063;PMS5003;67429;51.596;-3.264;2023-04-15T13:13:23;2;2;
78063;PMS5003;67429;51.596;-3.264;2023-04-15T13:15:48;2;2;
78063;PMS5003;67429;51.596;-3.264;2023-04-15T13:18:13;3;3;
78063;PMS5003;67429;51.596;-3.264;2023-04-15T13:20:39;3;3;
78063;PMS5003;67429;51.596;-3.264;2023-04-15T13:23:04;3;3;
78063;PMS5003;67429;51.596;-3.264;2023-04-15T13:25:30;4;4;
78063;PMS5003;67429;51.596;-3.264;2023-04-15T13:27:55;3;3;
78063;PMS5003;67429;51.596;-3.264;2023-04-15T13:30:21;4;4;
78063;PMS5003;67429;51.596;-3.264;2023-04-15T13:32:47;4;4;
78063;PMS5003;67429;51.596;-3.264;2023-04-15T13:35:12;5;5;
78063;PMS5003;67429;51.596;-3.264;2023-04-15T13:37:37;4;4;
78063;PMS5003;67429;51.596;-3.264;2023-04-15T13:40:03;2;2;
78063;PMS5003;67429;51.596;-3.264;2023-04-15T13:42:28;4;4;
78063;PMS5003;67429;51.596;-3.264;2023-04-15T13:44:54;4;4;
78063;PMS5003;67429;51.596;-3.264;2023-04-15T13:47:20;2;2;
78063;PMS5003;67429;51.596;-3.264;2023-04-15T13:49:46;3;3;
78063;PMS5003;67429;51.596;-3.264;2023-04-15T13:52:11;4;3;
78063;PMS5003;67429;51.596;-3.264;2023-04-15T13:54:36;3;3;
78063;PMS5003;67429;51.596;-3.264;2023-04-15T13:57:02;3;3;
78063;PMS5003;67429;51.596;-3.264;2023-04-15T13:59:27;4;4;
78063;PMS5003;67429;51.596;-3.264;2023-04-15T14:01:53;4;4;
78063;PMS5003;67429;51.596;-3.264;2023-04-15T14:04:19;5;4;
78063;PMS5003;67429;51.596;-3.264;2023-04-15T14:06:44;4;4;
78063;PMS5003;67429;51.596;-3.264;2023-04-15T14:09:09;4;4;
78063;PMS5003;67429;51.596;-3.264;2023-04-15T14:11:36;4;4;
78063;PMS5003;67429;51.596;-3.264;2023-04-15T14:14:00;3;3;
78063;PMS5003;67429;51.596;-3.264;2023-04-15T14:16:26;5;5;
78063;PMS5003;67429;51.596;-3.264;2023-04-15T14:18:51;4;4;
78063;PMS5003;67429;51.596;-3.264;2023-04-15T14:21:17;4;4;
78063;PMS5003;67429;51.596;-3.264;2023-04-15T14:23:42;6;5;
78063;PMS5003;67429;51.596;-3.264;2023-04-15T14:26:08;6;6;
78063;PMS5003;67429;51.596;-3.264;2023-04-15T14:28:34;6;6;
78063;PMS5003;67429;51.596;-3.264;2023-04-15T14:30:59;6;4;
78063;PMS5003;67429;51.596;-3.264;2023-04-15T14:33:24;4;4;
78063;PMS5003;67429;51.596;-3.264;2023-04-15T14:35:50;2;2;
78063;PMS5003;67429;51.596;-3.264;2023-04-15T14:38:15;5;5;
78063;PMS5003;67429;51.596;-3.264;2023-04-15T14:40:41;3;3;
78063;PMS5003;67429;51.596;-3.264;2023-04-15T14:43:06;3;3;
78063;PMS5003;67429;51.596;-3.264;2023-04-15T14:45:32;5;5;
78063;PMS5003;67429;51.596;-3.264;2023-04-15T14:47:57;5;5;
78063;PMS5003;67429;51.596;-3.264;2023-04-15T14:50:23;2;2;
78063;PMS5003;67429;51.596;-3.264;2023-04-15T14:52:48;4;3;
78063;PMS5003;67429;51.596;-3.264;2023-04-15T14:55:14;4;4;
78063;PMS5003;67429;51.596;-3.264;2023-04-15T14:57:40;3;3;
78063;PMS5003;67429;51.596;-3.264;2023-04-15T15:00:05;7;6;
78063;PMS5003;67429;51.596;-3.264;2023-04-15T15:02:31;4;4;
78063;PMS5003;67429;51.596;-3.264;2023-04-15T15:04:56;7;6;
78063;PMS5003;67429;51.596;-3.264;2023-04-15T15:07:21;3;3;
78063;PMS5003;67429;51.596;-3.264;2023-04-15T15:09:47;4;4;
78063;PMS5003;67429;51.596;-3.264;2023-04-15T15:12:12;4;4;
78063;PMS5003;67429;51.596;-3.264;2023-04-15T15:14:38;5;4;
78063;PMS5003;67429;51.596;-3.264;2023-04-15T15:17:03;2;2;
78063;PMS5003;67429;51.596;-3.264;2023-04-15T15:19:30;3;3;
78063;PMS5003;67429;51.596;-3.264;2023-04-15T15:21:54;4;4;
78063;PMS5003;67429;51.596;-3.264;2023-04-15T15:24:20;2;2;
78063;PMS5003;67429;51.596;-3.264;2023-04-15T15:26:46;2;2;
78063;PMS5003;67429;51.596;-3.264;2023-04-15T15:29:11;3;3;
78063;PMS5003;67429;51.596;-3.264;2023-04-15T15:31:36;4;3;
78063;PMS5003;67429;51.596;-3.264;2023-04-15T15:34:02;3;3;
78063;PMS5003;67429;51.596;-3.264;2023-04-15T15:36:27;5;4;
78063;PMS5003;67429;51.596;-3.264;2023-04-15T15:38:53;4;4;
78063;PMS5003;67429;51.596;-3.264;2023-04-15T15:41:19;4;4;
78063;PMS5003;67429;51.596;-3.264;2023-04-15T15:43:44;5;5;
78063;PMS5003;67429;51.596;-3.264;2023-04-15T15:46:09;3;3;
78063;PMS5003;67429;51.596;-3.264;2023-04-15T15:48:34;2;2;
78063;PMS5003;67429;51.596;-3.264;2023-04-15T15:51:00;3;3;
78063;PMS5003;67429;51.596;-3.264;2023-04-15T15:53:25;4;4;
78063;PMS5003;67429;51.596;-3.264;2023-04-15T15:55:51;4;4;
78063;PMS5003;67429;51.596;-3.264;2023-04-15T15:58:16;2;2;
78063;PMS5003;67429;51.596;-3.264;2023-04-15T16:00:42;4;4;
78063;PMS5003;67429;51.596;-3.264;2023-04-15T16:03:07;4;3;
78063;PMS5003;67429;51.596;-3.264;2023-04-15T16:05:33;5;3;
78063;PMS5003;67429;51.596;-3.264;2023-04-15T16:07:58;3;3;
78063;PMS5003;67429;51.596;-3.264;2023-04-15T16:10:23;2;2;
78063;PMS5003;67429;51.596;-3.264;2023-04-15T16:12:49;3;2;
78063;PMS5003;67429;51.596;-3.264;2023-04-15T16:15:14;2;2;
78063;PMS5003;67429;51.596;-3.264;2023-04-15T16:17:40;3;3;
78063;PMS5003;67429;51.596;-3.264;2023-04-15T16:20:06;3;3;
78063;PMS5003;67429;51.596;-3.264;2023-04-15T16:22:31;2;2;
78063;PMS5003;67429;51.596;-3.264;2023-04-15T16:24:57;4;4;
78063;PMS5003;67429;51.596;-3.264;2023-04-15T16:27:22;5;4;
78063;PMS5003;67429;51.596;-3.264;2023-04-15T16:29:47;5;5;
78063;PMS5003;67429;51.596;-3.264;2023-04-15T16:32:13;4;4;
78063;PMS5003;67429;51.596;-3.264;2023-04-15T16:34:38;4;4;